createdAt,value
2022-11-25T00:00:14.118Z,3.07
2022-11-25T00:02:44.959Z,2.87
2022-11-25T00:05:12.227Z,2.53
2022-11-25T00:07:39.383Z,2.23
2022-11-25T00:10:07.191Z,2.70
2022-11-25T00:12:34.279Z,2.90
2022-11-25T00:15:01.495Z,3.77
2022-11-25T00:17:28.559Z,3.17
2022-11-25T00:19:56.253Z,2.70
2022-11-25T00:22:23.385Z,2.77
2022-11-25T00:24:50.578Z,2.67
2022-11-25T00:27:17.716Z,3.10
2022-11-25T00:29:44.812Z,2.20
2022-11-25T00:32:12.071Z,2.73
2022-11-25T00:34:39.165Z,2.00
2022-11-25T00:37:06.383Z,2.23
2022-11-25T00:39:33.536Z,2.30
2022-11-25T00:42:19.272Z,2.53
2022-11-25T00:44:46.403Z,2.23
2022-11-25T00:47:17.728Z,2.40
2022-11-25T00:49:47.740Z,2.57
2022-11-25T00:52:23.518Z,2.20
2022-11-25T00:54:51.924Z,2.83
2022-11-25T00:57:21.586Z,1.70
2022-11-25T01:00:08.038Z,1.90
2022-11-25T01:02:35.338Z,2.00
2022-11-25T01:05:02.663Z,2.07
2022-11-25T01:07:29.854Z,1.90
2022-11-25T01:09:57.204Z,2.50
2022-11-25T01:12:24.364Z,1.90
2022-11-25T01:14:51.518Z,1.70
2022-11-25T01:17:18.691Z,2.33
2022-11-25T01:19:45.766Z,2.20
2022-11-25T01:22:12.964Z,2.43
2022-11-25T01:24:40.100Z,2.50
2022-11-25T01:27:07.151Z,2.17
2022-11-25T01:29:41.772Z,2.40
2022-11-25T01:32:08.846Z,2.60
2022-11-25T01:34:37.544Z,2.97
2022-11-25T01:37:05.686Z,2.10
2022-11-25T01:39:33.386Z,2.50
2022-11-25T01:42:01.826Z,3.10
2022-11-25T01:44:31.650Z,2.20
2022-11-25T01:47:05.357Z,2.37
2022-11-25T01:49:38.348Z,2.30
2022-11-25T01:52:15.827Z,2.37
2022-11-25T01:54:53.950Z,2.67
2022-11-25T01:57:34.544Z,2.20
2022-11-25T02:00:09.553Z,2.60
2022-11-25T02:02:36.801Z,2.63
2022-11-25T02:05:08.955Z,3.10
2022-11-25T02:07:43.424Z,3.07
2022-11-25T02:10:32.124Z,2.30
2022-11-25T02:12:59.791Z,2.83
2022-11-25T02:15:28.828Z,2.40
2022-11-25T02:18:14.484Z,2.70
2022-11-25T02:27:07.505Z,3.40
2022-11-25T02:29:35.289Z,3.73
2022-11-25T02:32:02.507Z,3.47
2022-11-25T02:34:29.634Z,3.33
2022-11-25T02:36:56.918Z,4.00
2022-11-25T02:39:24.197Z,3.47
2022-11-25T02:41:58.044Z,3.77
2022-11-25T02:44:27.538Z,3.53
2022-11-25T02:46:54.720Z,3.20
2022-11-25T02:49:21.883Z,3.33
2022-11-25T02:51:49.058Z,3.30
2022-11-25T02:54:16.475Z,4.33
2022-11-25T02:56:43.793Z,3.30
2022-11-25T02:59:12.272Z,3.57
2022-11-25T03:01:39.911Z,3.07
2022-11-25T03:04:07.452Z,3.43
2022-11-25T03:06:34.777Z,3.60
2022-11-25T03:09:02.941Z,3.40
2022-11-25T03:11:49.799Z,3.70
2022-11-25T03:14:17.322Z,3.30
2022-11-25T03:16:44.969Z,3.50
2022-11-25T03:19:12.284Z,3.73
2022-11-25T03:21:39.550Z,3.00
2022-11-25T03:24:08.188Z,2.93
2022-11-25T03:26:35.471Z,3.07
2022-11-25T03:29:02.722Z,3.80
2022-11-25T03:31:30.110Z,3.70
2022-11-25T03:33:57.441Z,3.67
2022-11-25T03:36:24.738Z,3.47
2022-11-25T03:38:52.346Z,3.40
2022-11-25T03:41:19.641Z,2.90
2022-11-25T03:43:47.267Z,3.03
2022-11-25T03:46:17.408Z,2.70
2022-11-25T03:48:44.822Z,2.90
2022-11-25T03:51:12.313Z,3.23
2022-11-25T03:53:40.164Z,3.07
2022-11-25T03:56:07.999Z,3.13
2022-11-25T03:58:35.813Z,3.43
2022-11-25T04:01:04.636Z,3.73
2022-11-25T04:03:32.714Z,2.80
2022-11-25T04:06:00.073Z,4.53
2022-11-25T04:08:27.534Z,3.80
2022-11-25T04:10:54.749Z,3.80
2022-11-25T04:13:22.103Z,5.10
2022-11-25T04:15:50.957Z,3.97
2022-11-25T04:18:19.545Z,4.70
2022-11-25T04:20:47.380Z,7.90
2022-11-25T04:23:14.988Z,7.80
2022-11-25T04:25:42.293Z,10.20
2022-11-25T04:28:09.611Z,13.53
2022-11-25T04:30:37.834Z,8.83
2022-11-25T04:33:05.051Z,9.20
2022-11-25T04:35:32.128Z,10.43
2022-11-25T04:37:59.402Z,10.60
2022-11-25T04:40:26.515Z,8.53
2022-11-25T04:42:59.816Z,5.83
2022-11-25T04:45:45.311Z,6.60
2022-11-25T04:48:16.620Z,4.67
2022-11-25T04:50:44.046Z,4.17
2022-11-25T04:53:11.584Z,4.20
2022-11-25T04:55:38.723Z,4.27
2022-11-25T04:58:06.084Z,3.80
2022-11-25T05:00:33.505Z,3.33
2022-11-25T05:03:00.816Z,3.87
2022-11-25T05:05:34.975Z,2.67
2022-11-25T05:08:02.215Z,3.20
2022-11-25T05:10:29.309Z,3.20
2022-11-25T05:12:56.569Z,2.97
2022-11-25T05:15:23.753Z,2.63
2022-11-25T05:17:50.943Z,3.40
2022-11-25T05:20:18.761Z,2.60
2022-11-25T05:22:45.970Z,2.97
2022-11-25T05:25:13.231Z,2.87
2022-11-25T05:27:40.466Z,2.60
2022-11-25T05:30:08.824Z,2.97
2022-11-25T05:32:36.112Z,3.37
2022-11-25T05:35:03.713Z,2.73
2022-11-25T05:37:31.028Z,3.60
2022-11-25T05:39:58.167Z,3.00
2022-11-25T05:42:25.419Z,4.00
2022-11-25T05:44:52.628Z,2.90
2022-11-25T05:47:21.031Z,2.90
2022-11-25T05:50:02.713Z,3.17
2022-11-25T05:52:30.081Z,3.00
2022-11-25T05:54:57.698Z,2.57
2022-11-25T05:57:24.814Z,3.13
2022-11-25T06:00:11.016Z,2.53
2022-11-25T06:02:39.395Z,3.53
2022-11-25T06:05:07.196Z,2.90
2022-11-25T06:07:34.697Z,4.23
2022-11-25T06:10:03.424Z,2.90
2022-11-25T06:12:30.845Z,3.83
2022-11-25T06:14:58.144Z,3.90
2022-11-25T06:17:27.644Z,4.00
2022-11-25T06:19:54.836Z,3.53
2022-11-25T06:22:22.124Z,2.83
2022-11-25T06:24:57.595Z,3.30
2022-11-25T06:27:31.923Z,3.07
2022-11-25T06:30:30.797Z,3.30
2022-11-25T06:32:58.051Z,3.50
2022-11-25T06:35:41.565Z,2.70
2022-11-25T06:38:17.567Z,3.30
2022-11-25T06:41:32.004Z,4.00
2022-11-25T06:47:14.495Z,5.00
2022-11-25T06:49:59.398Z,2.67
2022-11-25T06:52:26.709Z,2.90
2022-11-25T06:54:56.464Z,3.13
2022-11-25T06:58:36.697Z,3.00
2022-11-25T07:00:42.160Z,4.03
2022-11-25T07:07:16.445Z,3.00
2022-11-25T07:09:43.812Z,2.80
2022-11-25T07:12:13.797Z,2.33
2022-11-25T07:14:41.159Z,6.37
2022-11-25T07:17:12.619Z,7.80
2022-11-25T07:19:42.409Z,8.93
2022-11-25T07:22:17.623Z,5.53
2022-11-25T07:25:05.410Z,4.10
2022-11-25T07:27:36.520Z,3.37
2022-11-25T07:31:09.322Z,3.77
2022-11-25T07:32:58.853Z,4.07
2022-11-25T07:35:33.858Z,4.40
2022-11-25T07:38:21.646Z,3.90
2022-11-25T07:40:50.845Z,4.70
2022-11-25T07:43:26.108Z,4.10
2022-11-25T07:45:53.833Z,4.13
2022-11-25T07:48:49.481Z,9.20
2022-11-25T07:51:49.770Z,4.03
2022-11-25T07:54:35.471Z,3.97
2022-11-25T07:57:20.912Z,5.43
2022-11-25T07:59:48.461Z,4.07
2022-11-25T08:02:18.283Z,4.10
2022-11-25T08:05:13.519Z,4.00
2022-11-25T08:07:42.683Z,4.50
2022-11-25T08:10:17.224Z,3.83
2022-11-25T08:12:56.104Z,4.07
2022-11-25T08:15:24.049Z,4.30
2022-11-25T08:17:57.667Z,3.60
2022-11-25T08:20:24.899Z,4.43
2022-11-25T08:22:59.358Z,4.60
2022-11-25T08:25:27.149Z,9.67
2022-11-25T08:28:11.838Z,6.87
2022-11-25T08:30:42.392Z,8.57
2022-11-25T08:33:30.326Z,5.63
2022-11-25T08:36:08.831Z,5.07
2022-11-25T08:38:47.932Z,8.20
2022-11-25T08:41:39.552Z,5.53
2022-11-25T08:44:12.878Z,4.70
2022-11-25T08:46:55.753Z,4.40
2022-11-25T08:49:39.139Z,5.93
2022-11-25T08:52:11.169Z,4.50
2022-11-25T08:54:38.595Z,4.90
2022-11-25T08:57:10.817Z,4.77
2022-11-25T08:59:39.157Z,5.30
2022-11-25T09:02:16.580Z,3.67
2022-11-25T09:04:44.218Z,4.90
2022-11-25T09:07:21.580Z,3.67
2022-11-25T09:09:55.353Z,4.80
2022-11-25T09:12:23.382Z,4.57
2022-11-25T09:14:50.728Z,4.30
2022-11-25T09:17:39.780Z,4.67
2022-11-25T09:20:24.129Z,5.63
2022-11-25T09:23:10.132Z,4.60
2022-11-25T09:26:07.188Z,5.20
2022-11-25T09:28:35.204Z,4.57
2022-11-25T09:31:17.053Z,7.23
2022-11-25T09:33:51.175Z,5.10
2022-11-25T09:36:19.882Z,4.00
2022-11-25T09:38:49.890Z,3.57
2022-11-25T09:42:52.502Z,2.87
2022-11-25T09:45:54.755Z,3.43
2022-11-25T09:48:43.296Z,4.30
2022-11-25T09:51:27.434Z,3.87
2022-11-25T09:54:06.911Z,3.50
2022-11-25T09:56:59.061Z,4.13
2022-11-25T10:00:02.853Z,4.40
2022-11-25T10:02:39.932Z,3.20
2022-11-25T10:05:24.289Z,3.93
2022-11-25T10:08:00.665Z,2.53
2022-11-25T10:10:41.765Z,3.37
2022-11-25T10:13:43.889Z,3.90
2022-11-25T10:16:47.240Z,4.20
2022-11-25T10:19:45.082Z,3.90
2022-11-25T10:22:33.554Z,7.47
2022-11-25T10:25:55.970Z,3.87
2022-11-25T10:28:33.733Z,4.13
2022-11-25T10:31:17.422Z,11.33
2022-11-25T10:33:55.145Z,23.17
2022-11-25T10:40:00.377Z,19.27
2022-11-25T10:47:15.254Z,5.13
2022-11-25T10:54:05.215Z,3.57
2022-11-25T10:57:03.284Z,3.80
2022-11-25T11:00:02.817Z,17.90
2022-11-25T11:02:48.594Z,4.23
2022-11-25T11:05:33.941Z,4.60
2022-11-25T11:08:28.785Z,4.70
2022-11-25T11:11:16.569Z,5.10
2022-11-25T11:14:36.569Z,3.70
2022-11-25T11:17:36.676Z,5.90
2022-11-25T11:20:51.567Z,9.27
2022-11-25T11:23:55.907Z,4.53
2022-11-25T11:26:38.033Z,4.67
2022-11-25T11:29:15.161Z,4.10
2022-11-25T11:32:17.145Z,5.63
2022-11-25T11:35:20.252Z,4.27
2022-11-25T11:38:15.608Z,4.83
2022-11-25T11:40:47.508Z,6.30
2022-11-25T11:44:29.340Z,4.70
2022-11-25T11:47:27.726Z,5.33
2022-11-25T11:50:09.792Z,4.07
2022-11-25T11:52:51.672Z,4.30
2022-11-25T11:55:25.429Z,3.70
2022-11-25T11:58:26.064Z,3.97
2022-11-25T12:01:47.028Z,4.77
2022-11-25T12:04:55.213Z,3.63
2022-11-25T12:07:59.455Z,5.03
2022-11-25T12:11:01.331Z,4.80
2022-11-25T12:24:06.692Z,4.77
2022-11-25T12:27:08.728Z,5.30
2022-11-25T12:30:07.974Z,5.57
2022-11-25T12:33:07.401Z,6.00
2022-11-25T12:36:00.842Z,10.97
2022-11-25T12:39:01.647Z,4.17
2022-11-25T12:46:31.463Z,4.03
2022-11-25T12:49:14.891Z,3.73
2022-11-25T12:51:57.349Z,3.90
2022-11-25T12:54:46.415Z,4.90
2022-11-25T13:01:30.833Z,4.80
2022-11-25T13:05:18.526Z,5.77
2022-11-25T13:08:12.301Z,4.40
2022-11-25T13:11:24.886Z,3.30
2022-11-25T13:14:34.787Z,4.50
2022-11-25T13:17:03.502Z,4.03
2022-11-25T13:19:37.492Z,2.93
2022-11-25T13:22:27.257Z,4.37
2022-11-25T13:25:05.091Z,4.90
2022-11-25T13:31:30.370Z,3.20
2022-11-25T13:34:28.628Z,4.43
2022-11-25T13:37:23.584Z,4.43
2022-11-25T13:40:26.579Z,5.80
2022-11-25T13:42:57.672Z,8.97
2022-11-25T13:45:58.657Z,5.53
2022-11-25T13:48:54.653Z,7.87
2022-11-25T13:52:09.443Z,3.67
2022-11-25T13:55:57.913Z,5.20
2022-11-25T13:58:36.353Z,4.27
2022-11-25T14:01:35.869Z,4.80
2022-11-25T14:04:18.595Z,6.53
2022-11-25T14:06:55.400Z,6.67
2022-11-25T14:09:41.899Z,5.43
2022-11-25T14:12:43.016Z,7.17
2022-11-25T14:16:02.344Z,3.60
2022-11-25T14:19:28.172Z,5.13
2022-11-25T14:22:28.076Z,4.40
2022-11-25T14:25:10.426Z,5.20
2022-11-25T14:27:52.648Z,6.77
2022-11-25T14:30:26.660Z,5.83
2022-11-25T14:33:08.737Z,5.73
2022-11-25T14:36:10.666Z,6.30
2022-11-25T14:38:59.826Z,6.77
2022-11-25T14:41:41.698Z,5.27
2022-11-25T14:44:23.344Z,4.83
2022-11-25T14:47:11.090Z,6.03
2022-11-25T14:50:26.601Z,4.83
2022-11-25T14:52:55.282Z,23.60
2022-11-25T14:55:46.162Z,30.07
2022-11-25T14:58:16.337Z,12.03
2022-11-25T15:01:03.528Z,7.87
2022-11-25T15:03:30.896Z,6.20
2022-11-25T15:06:25.350Z,5.17
2022-11-25T15:08:58.462Z,4.03
2022-11-25T15:11:45.194Z,5.50
2022-11-25T15:14:24.045Z,4.40
2022-11-25T15:16:52.285Z,5.00
2022-11-25T15:19:23.148Z,6.20
2022-11-25T15:22:22.399Z,6.00
2022-11-25T15:24:55.563Z,4.93
2022-11-25T15:27:26.444Z,6.27
2022-11-25T15:30:01.893Z,5.07
2022-11-25T15:32:33.337Z,5.33
2022-11-25T15:35:02.161Z,9.03
2022-11-25T15:37:29.684Z,5.63
2022-11-25T15:40:36.655Z,9.23
2022-11-25T15:43:29.720Z,5.73
2022-11-25T15:46:01.982Z,6.30
2022-11-25T15:48:35.488Z,5.80
2022-11-25T15:51:59.590Z,18.80
2022-11-25T15:54:33.090Z,9.80
2022-11-25T15:57:14.909Z,7.70
2022-11-25T16:00:13.465Z,6.63
2022-11-25T16:02:43.856Z,6.70
2022-11-25T16:05:15.930Z,7.57
2022-11-25T16:07:52.418Z,7.13
2022-11-25T16:10:22.853Z,9.33
2022-11-25T16:13:23.083Z,10.63
2022-11-25T16:16:09.077Z,8.57
2022-11-25T16:18:57.834Z,7.70
2022-11-25T16:21:30.715Z,9.03
2022-11-25T16:24:06.930Z,11.87
2022-11-25T16:26:36.674Z,11.17
2022-11-25T16:29:16.459Z,12.03
2022-11-25T16:31:43.784Z,12.93
2022-11-25T16:34:16.615Z,12.70
2022-11-25T16:36:44.166Z,12.00
2022-11-25T16:39:11.851Z,12.07
2022-11-25T16:41:40.549Z,16.43
2022-11-25T16:44:20.060Z,23.67
2022-11-25T16:46:47.589Z,27.87
2022-11-25T16:49:16.631Z,20.03
2022-11-25T16:51:43.973Z,14.40
2022-11-25T16:54:12.554Z,11.37
2022-11-25T16:56:41.924Z,11.70
2022-11-25T16:59:27.128Z,9.63
2022-11-25T17:01:54.966Z,8.50
2022-11-25T17:04:22.293Z,6.77
2022-11-25T17:07:16.644Z,6.70
2022-11-25T17:09:37.035Z,16.23
2022-11-25T17:12:06.981Z,10.13
2022-11-25T17:14:36.541Z,8.00
2022-11-25T17:17:04.851Z,7.37
2022-11-25T17:19:32.439Z,8.53
2022-11-25T17:21:59.775Z,8.57
2022-11-25T17:24:27.461Z,8.07
2022-11-25T17:27:03.456Z,8.40
2022-11-25T17:29:35.346Z,7.13
2022-11-25T17:32:03.578Z,9.67
2022-11-25T17:34:36.331Z,8.70
2022-11-25T17:37:25.833Z,9.43
2022-11-25T17:39:53.818Z,12.97
2022-11-25T17:42:30.508Z,11.03
2022-11-25T17:45:03.997Z,11.33
2022-11-25T17:47:31.285Z,8.37
2022-11-25T17:49:58.641Z,10.60
2022-11-25T17:52:25.972Z,8.73
2022-11-25T17:54:53.396Z,7.47
2022-11-25T17:57:22.009Z,9.97
2022-11-25T17:59:49.499Z,7.43
2022-11-25T18:02:22.593Z,10.20
2022-11-25T18:04:50.194Z,6.37
2022-11-25T18:07:18.329Z,6.73
2022-11-25T18:09:45.851Z,5.67
2022-11-25T18:12:21.643Z,4.70
2022-11-25T18:14:49.189Z,4.27
2022-11-25T18:17:19.380Z,5.30
2022-11-25T18:19:54.651Z,6.23
2022-11-25T18:22:24.133Z,6.13
2022-11-25T18:24:52.786Z,9.60
2022-11-25T18:27:22.140Z,7.23
2022-11-25T18:30:06.677Z,10.13
2022-11-25T18:32:34.064Z,9.83
2022-11-25T18:35:01.419Z,8.57
2022-11-25T18:37:28.730Z,12.27
2022-11-25T18:39:55.960Z,10.43
2022-11-25T18:42:27.458Z,11.03
2022-11-25T18:44:56.151Z,12.30
2022-11-25T18:47:42.004Z,10.40
2022-11-25T18:50:23.750Z,14.30
2022-11-25T18:52:51.766Z,12.63
2022-11-25T18:55:21.708Z,14.53
2022-11-25T18:57:51.133Z,19.53
2022-11-25T19:00:32.265Z,20.50
2022-11-25T19:03:01.190Z,16.43
2022-11-25T19:05:32.299Z,14.93
2022-11-25T19:08:00.116Z,18.60
2022-11-25T19:10:30.878Z,20.93
2022-11-25T19:13:01.650Z,10.93
2022-11-25T19:15:29.146Z,11.97
2022-11-25T19:18:02.129Z,12.37
2022-11-25T19:20:32.386Z,7.93
2022-11-25T19:23:12.266Z,10.23
2022-11-25T19:25:39.575Z,13.00
2022-11-25T19:28:06.957Z,12.17
2022-11-25T19:30:34.196Z,14.23
2022-11-25T19:33:02.558Z,10.93
2022-11-25T19:35:35.617Z,10.23
2022-11-25T19:38:02.983Z,11.03
2022-11-25T19:40:33.525Z,8.43
2022-11-25T19:43:05.055Z,7.10
2022-11-25T19:45:32.569Z,9.47
2022-11-25T19:48:20.723Z,8.87
2022-11-25T19:50:52.086Z,11.57
2022-11-25T19:53:20.923Z,10.27
2022-11-25T19:55:48.826Z,8.57
2022-11-25T19:58:16.116Z,11.70
2022-11-25T20:00:45.632Z,17.40
2022-11-25T20:03:23.542Z,9.63
2022-11-25T20:06:15.076Z,8.97
2022-11-25T20:08:42.375Z,11.07
2022-11-25T20:11:17.805Z,11.50
2022-11-25T20:13:46.039Z,8.03
2022-11-25T20:16:36.078Z,10.80
2022-11-25T20:19:04.196Z,9.43
2022-11-25T20:21:40.848Z,11.30
2022-11-25T20:24:27.064Z,8.83
2022-11-25T20:26:54.381Z,7.60
2022-11-25T20:29:28.904Z,10.80
2022-11-25T20:31:58.261Z,8.47
2022-11-25T20:34:25.737Z,8.57
2022-11-25T20:36:53.052Z,10.10
2022-11-25T20:39:20.620Z,12.80
2022-11-25T20:41:52.000Z,11.43
2022-11-25T20:44:20.471Z,10.20
2022-11-25T20:46:48.178Z,9.40
2022-11-25T20:49:22.901Z,13.17
2022-11-25T20:51:50.304Z,9.83
2022-11-25T20:54:17.928Z,10.77
2022-11-25T20:56:45.241Z,9.97
2022-11-25T20:59:21.701Z,10.23
2022-11-25T21:01:50.185Z,11.30
2022-11-25T21:04:18.385Z,13.17
2022-11-25T21:06:46.129Z,10.60
2022-11-25T21:09:19.023Z,13.30
2022-11-25T21:12:04.772Z,12.20
2022-11-25T21:14:31.994Z,23.50
2022-11-25T21:16:59.274Z,16.30
2022-11-25T21:19:26.499Z,10.00
2022-11-25T21:21:54.110Z,11.97
2022-11-25T21:24:38.980Z,12.43
2022-11-25T21:27:15.105Z,10.93
2022-11-25T21:29:43.962Z,11.67
2022-11-25T21:32:19.601Z,8.80
2022-11-25T21:34:46.964Z,9.20
2022-11-25T21:37:29.925Z,10.10
2022-11-25T21:39:58.894Z,9.30
2022-11-25T21:42:27.042Z,8.33
2022-11-25T21:44:54.813Z,10.13
2022-11-25T21:47:25.030Z,8.77
2022-11-25T21:49:52.963Z,9.17
2022-11-25T21:52:20.188Z,8.63
2022-11-25T21:54:47.746Z,8.83
2022-11-25T21:57:43.027Z,8.20
2022-11-25T22:00:25.393Z,8.10
2022-11-25T22:02:53.179Z,7.93
2022-11-25T22:05:39.343Z,7.00
2022-11-25T22:08:06.825Z,6.70
2022-11-25T22:10:34.445Z,10.37
2022-11-25T22:13:04.047Z,7.90
2022-11-25T22:15:31.345Z,8.77
2022-11-25T22:17:58.844Z,7.53
2022-11-25T22:20:29.033Z,7.20
2022-11-25T22:22:56.642Z,8.23
2022-11-25T22:25:26.792Z,10.30
2022-11-25T22:27:54.309Z,9.47
2022-11-25T22:30:23.063Z,9.83
2022-11-25T22:33:00.434Z,11.80
2022-11-25T22:35:30.790Z,11.67
2022-11-25T22:37:58.088Z,10.50
2022-11-25T22:40:25.682Z,11.90
2022-11-25T22:42:55.069Z,11.90
2022-11-25T22:45:30.941Z,15.10
2022-11-25T22:48:15.729Z,11.73
2022-11-25T22:50:46.777Z,11.27
2022-11-25T22:53:32.601Z,10.83
2022-11-25T22:56:00.188Z,10.50
2022-11-25T22:58:28.441Z,10.13
2022-11-25T23:01:15.928Z,12.17
2022-11-25T23:04:19.511Z,10.40
2022-11-25T23:06:47.849Z,11.30
2022-11-25T23:09:18.895Z,9.53
2022-11-25T23:11:46.901Z,11.30
2022-11-25T23:14:14.191Z,11.83
2022-11-25T23:16:42.621Z,12.27
2022-11-25T23:19:16.871Z,10.30
2022-11-25T23:21:45.725Z,12.07
2022-11-25T23:24:15.641Z,12.23
2022-11-25T23:26:44.083Z,9.30
2022-11-25T23:29:19.278Z,10.40
2022-11-25T23:31:46.626Z,10.63
2022-11-25T23:34:13.997Z,9.40
2022-11-25T23:36:47.394Z,13.57
2022-11-25T23:39:21.588Z,9.80
2022-11-25T23:42:20.543Z,9.47
2022-11-25T23:44:47.837Z,10.57
2022-11-25T23:47:33.301Z,9.13
2022-11-25T23:50:03.166Z,13.13
2022-11-25T23:52:30.692Z,8.10
2022-11-25T23:54:58.236Z,10.40
2022-11-25T23:57:32.760Z,11.43
